メインページ
METAR-TAF:

METAR-TAF

空港 :

ラ・アウロラ国際空港

グアテマラシティ, グアテマラ

緯度: 14-35N, 経度: 090-31W, 海抜: 1489m

現時点の気象観測

当レポートは25分前の21:00(UTC)に作成
北/北東の風 14kt
気温 23°C
湿度 57%
気圧 1025 hPa
視程10km以上
高度2000ftの雲はほとんどない
高度2400ftの雲は散在している, 積乱雲.
高度8000ftの千切れ雲あり

METAR: MGGT 162100Z 02014KT 9999 FEW020 SCT024CB BKN080 23/14 Q1025 A3027 CB/PCPN ESE/SE CB SSW/SW/W

時間: 15:25 (21:25 UTC)

予報

当レポートは10時間25分前の11:00(UTC)に作成
予報は16日の 12時(UTC)から 17日の 12時(UTC)まで有効
の風 10kt
視程10km以上
高度1400ftの千切れ雲あり
16日の 15時(UTC)から 16日の 17時(UTC)まで徐々に
高度1800ftの雲は散在している
16日の 20時(UTC)から 16日の 24時(UTC)まで一時的に
高度2000ftの雲は散在している, 塔状積雲.
17日の 00時(UTC)から 17日の 02時(UTC)まで一時的に
の風 12kt
高度1600ftの雲は散在している
17日の 06時(UTC)から 17日の 12時(UTC)まで一時的に
視程: 8000m
高度1600ftの千切れ雲あり
雨, 霧雨

TAF: MGGT 161100Z 1612/1712 36010KT 9999 BKN014 TX26/1620Z TN17/1612Z BECMG 1615/1617 SCT018 TEMPO 1620/1624 SCT020TCU TEMPO 1700/1702 36012KT SCT016 TEMPO 1706/1712 8000 RADZ BKN016

4,000以上の空港の気象観測と天気予報(METAR報とTAF報)

利用可能な観測所は地図上に黄色い丸と赤い丸で示す。

丸の上にカーソルを重ねると観測所名を参照できる。

次にクリックすると気象観測と天気予報を参照できる。

マップの切り替え:黒色「×」印の緑ボタンをクリックして拡大、「-」印の緑ボタンをクリックして縮小、緑色の三角印をクリックして隣りの地図に切り替え


METAR-TAF: